Randsburg, California
Current Conditions -  °F | °C
As of 11:56 PM on Friday 19 Dec 2014 (Local Time) from KNID Reporting Station
Clear Clear  
Wind Chill: 33°   Ceiling: Unl
Heat Index: 39°   Visibility: 10mi
Dew Point: 36°   Wind: 8mph
Humidity: 89%   Direction: 230°SW
Pressure: 30.19"   Gusts: NA
Location:  35.37°N, 117.66°W
Report Text: KNID 200756Z AUTO 23007KT 10SM CLR 04/02 A3019 RMK AO2 SLP232 T00390022 401170006 $
Loading
Personal Weather Stations






























Interactive Weather Map New forecast layout! Learn more

10-Day Weather Forecast

Advertisements
Track Severe Weather on mobile